Time;durP1;ratioP1;P1;durP2;ratioP2;P2;SDS_P1;SDS_P2;PMS_P1;PMS_P2;Temp;Humidity;BMP_temperature;BMP_pressure;BME280_temperature;BME280_humidity;BME280_pressure;Samples;Min_cycle;Max_cycle;Signal;HPM_P1;HPM_P2
2023/04/27 00:01:29;;;;;;;11.55;4.68;;;;;;;;;;5042806;28;20071;-77
2023/04/27 00:04:03;;;;;;;16.67;5.07;;;;;;;;;;5042653;28;20496;-78
2023/04/27 00:06:28;;;;;;;18.73;4.80;;;;;;;;;;5040953;28;20049;-78
2023/04/27 00:09:01;;;;;;;20.77;5.18;;;;;;;;;;5045356;28;20029;-78
2023/04/27 00:11:33;;;;;;;19.73;5.03;;;;;;;;;;5051338;28;20124;-79
2023/04/27 00:13:59;;;;;;;21.15;4.57;;;;;;;;;;5036949;28;20477;-78
2023/04/27 00:16:31;;;;;;;13.43;4.43;;;;;;;;;;5052970;28;20037;-78
2023/04/27 00:19:03;;;;;;;13.75;5.35;;;;;;;;;;5040763;28;20095;-78
2023/04/27 00:21:28;;;;;;;13.43;4.57;;;;;;;;;;5035934;28;20044;-78
2023/04/27 00:24:00;;;;;;;13.65;4.97;;;;;;;;;;5049049;28;20045;-78
2023/04/27 00:26:32;;;;;;;8.50;4.22;;;;;;;;;;5042345;28;20048;-78
2023/04/27 00:28:57;;;;;;;14.45;4.43;;;;;;;;;;5042661;28;20061;-77
2023/04/27 00:31:30;;;;;;;18.08;4.75;;;;;;;;;;5045425;28;20053;-78
2023/04/27 00:34:02;;;;;;;8.82;4.55;;;;;;;;;;5031389;28;20047;-77
2023/04/27 00:36:27;;;;;;;10.80;4.50;;;;;;;;;;5042934;28;20603;-78
2023/04/27 00:39:00;;;;;;;18.10;4.63;;;;;;;;;;5036929;28;20100;-77
2023/04/27 00:41:32;;;;;;;17.52;4.30;;;;;;;;;;5050271;28;20041;-78
2023/04/27 00:43:57;;;;;;;11.52;4.93;;;;;;;;;;5047508;28;20045;-78
2023/04/27 00:46:30;;;;;;;10.23;4.15;;;;;;;;;;5049116;28;20103;-78
2023/04/27 00:49:02;;;;;;;12.95;4.20;;;;;;;;;;5064913;28;20035;-78
2023/04/27 00:51:29;;;;;;;9.80;4.93;;;;;;;;;;5037550;28;20473;-77
2023/04/27 00:54:03;;;;;;;13.55;4.60;;;;;;;;;;5037300;28;20033;-78
2023/04/27 00:56:35;;;;;;;12.70;4.28;;;;;;;;;;5036967;28;20037;-78
2023/04/27 00:59:01;;;;;;;21.20;4.88;;;;;;;;;;5034901;28;20559;-79
2023/04/27 01:01:35;;;;;;;13.93;4.25;;;;;;;;;;5035741;28;20033;-79
2023/04/27 01:04:07;;;;;;;;;;;;;;;;;;5041909;28;20037;-79
2023/04/27 01:06:32;;;;;;;9.32;3.78;;;;;;;;;;5039649;28;19920;-78
2023/04/27 01:09:04;;;;;;;14.20;4.20;;;;;;;;;;5036683;28;20038;-78
2023/04/27 01:11:36;;;;;;;8.77;4.00;;;;;;;;;;5037903;28;20041;-78
2023/04/27 01:14:12;;;;;;;14.02;4.45;;;;;;;;;;5035097;28;20033;-78
2023/04/27 01:16:45;;;;;;;11.15;4.05;;;;;;;;;;5037437;28;20417;-78
2023/04/27 01:19:11;;;;;;;13.18;4.20;;;;;;;;;;5053661;28;20508;-78
2023/04/27 01:21:43;;;;;;;14.75;4.03;;;;;;;;;;5033689;28;20037;-78
2023/04/27 01:24:15;;;;;;;18.60;4.47;;;;;;;;;;5035901;28;20051;-78
2023/04/27 01:26:41;;;;;;;11.88;4.05;;;;;;;;;;5042001;28;20119;-77
2023/04/27 01:29:13;;;;;;;16.35;3.95;;;;;;;;;;5039009;28;20112;-77
2023/04/27 01:31:45;;;;;;;8.30;4.18;;;;;;;;;;5038617;28;20047;-78
2023/04/27 01:34:11;;;;;;;7.68;3.53;;;;;;;;;;5046532;28;20040;-78
2023/04/27 01:36:43;;;;;;;11.57;4.10;;;;;;;;;;5045611;28;20051;-78
2023/04/27 01:39:15;;;;;;;10.27;3.88;;;;;;;;;;5042304;28;20047;-78
2023/04/27 01:41:40;;;;;;;13.48;4.18;;;;;;;;;;5048025;28;20060;-77
2023/04/27 01:44:13;;;;;;;9.15;4.07;;;;;;;;;;5050052;28;20476;-78
2023/04/27 01:46:45;;;;;;;16.52;4.03;;;;;;;;;;5065169;28;20095;-78
2023/04/27 01:49:10;;;;;;;17.27;4.50;;;;;;;;;;5051901;28;20370;-79
2023/04/27 01:51:42;;;;;;;8.82;4.22;;;;;;;;;;5040889;28;20037;-78
2023/04/27 01:54:14;;;;;;;9.82;4.30;;;;;;;;;;5035579;28;20371;-78
2023/04/27 01:56:40;;;;;;;13.43;4.38;;;;;;;;;;5046887;28;20040;-78
2023/04/27 01:59:13;;;;;;;12.60;4.20;;;;;;;;;;5036150;28;20029;-79
2023/04/27 02:01:45;;;;;;;14.15;4.47;;;;;;;;;;5038538;28;20493;-78
2023/04/27 02:04:10;;;;;;;10.70;4.00;;;;;;;;;;5036168;28;20033;-78
2023/04/27 02:06:43;;;;;;;9.35;4.22;;;;;;;;;;5044092;28;20380;-78
2023/04/27 02:09:15;;;;;;;10.73;4.18;;;;;;;;;;5028073;28;20037;-78
2023/04/27 02:11:40;;;;;;;12.23;3.90;;;;;;;;;;5043148;28;20124;-78
2023/04/27 02:14:13;;;;;;;12.30;4.80;;;;;;;;;;5046057;28;20120;-78
2023/04/27 02:16:45;;;;;;;9.98;4.18;;;;;;;;;;5041400;28;20489;-79
2023/04/27 02:19:10;;;;;;;12.00;4.35;;;;;;;;;;5046417;28;20033;-78
2023/04/27 02:21:42;;;;;;;15.43;5.22;;;;;;;;;;5039285;28;20128;-78
2023/04/27 02:24:14;;;;;;;11.18;4.00;;;;;;;;;;5044381;28;20377;-78
2023/04/27 02:26:39;;;;;;;7.97;4.28;;;;;;;;;;5035269;28;20095;-78
2023/04/27 02:29:11;;;;;;;14.38;4.65;;;;;;;;;;5038891;28;20029;-79
2023/04/27 02:31:43;;;;;;;9.00;4.25;;;;;;;;;;5037865;28;20045;-78
2023/04/27 02:34:08;;;;;;;13.55;4.32;;;;;;;;;;5042254;28;20059;-77
2023/04/27 02:36:41;;;;;;;16.17;4.68;;;;;;;;;;5035296;28;20415;-78
2023/04/27 02:39:13;;;;;;;10.88;4.15;;;;;;;;;;5041218;28;20041;-77
2023/04/27 02:41:38;;;;;;;14.23;4.55;;;;;;;;;;5036785;28;20033;-78
2023/04/27 02:44:11;;;;;;;10.68;4.13;;;;;;;;;;5038581;28;20032;-79
2023/04/27 02:46:43;;;;;;;13.82;3.92;;;;;;;;;;5035509;28;20049;-78
2023/04/27 02:49:08;;;;;;;12.70;3.78;;;;;;;;;;5044237;28;20040;-78
2023/04/27 02:51:41;;;;;;;13.23;3.97;;;;;;;;;;5034863;28;20580;-78
2023/04/27 02:54:13;;;;;;;14.73;3.83;;;;;;;;;;5037808;28;20037;-78
2023/04/27 02:56:38;;;;;;;12.20;4.03;;;;;;;;;;5033680;28;20046;-78
2023/04/27 02:59:10;;;;;;;9.02;3.65;;;;;;;;;;5036706;28;20036;-78
2023/04/27 03:01:42;;;;;;;11.10;4.20;;;;;;;;;;5041088;28;20047;-78
2023/04/27 03:04:07;;;;;;;14.52;3.92;;;;;;;;;;5038526;28;20037;-78
2023/04/27 03:06:39;;;;;;;9.18;3.70;;;;;;;;;;5050644;28;20453;-78
2023/04/27 03:09:11;;;;;;;6.75;3.65;;;;;;;;;;5047463;28;20048;-78
2023/04/27 03:11:37;;;;;;;15.98;4.53;;;;;;;;;;5036148;28;20045;-77
2023/04/27 03:14:11;;;;;;;8.55;3.95;;;;;;;;;;5044004;28;20532;-78
2023/04/27 03:16:43;;;;;;;;;;;;;;;;;;5038503;28;20045;-78
2023/04/27 03:19:08;;;;;;;8.13;3.47;;;;;;;;;;5040062;28;19979;-79
2023/04/27 03:21:40;;;;;;;7.90;3.55;;;;;;;;;;5035879;28;20028;-78
2023/04/27 03:24:12;;;;;;;11.23;4.10;;;;;;;;;;5036983;28;20048;-78
2023/04/27 03:26:37;;;;;;;17.27;3.65;;;;;;;;;;5041295;28;20448;-78
2023/04/27 03:29:09;;;;;;;14.00;3.92;;;;;;;;;;5036541;28;20042;-77
2023/04/27 03:31:41;;;;;;;7.75;4.25;;;;;;;;;;5047370;28;20052;-78
2023/04/27 03:34:06;;;;;;;8.50;3.30;;;;;;;;;;5040756;28;20125;-78
2023/04/27 03:36:38;;;;;;;10.98;3.72;;;;;;;;;;5051538;28;20175;-79
2023/04/27 03:39:10;;;;;;;9.93;3.45;;;;;;;;;;5044579;28;20041;-79
2023/04/27 03:41:35;;;;;;;10.57;4.15;;;;;;;;;;5032866;28;20092;-78
2023/04/27 03:44:08;;;;;;;12.23;4.38;;;;;;;;;;5042248;28;20029;-78
2023/04/27 03:46:40;;;;;;;8.15;3.45;;;;;;;;;;5041185;28;20056;-78
2023/04/27 03:49:05;;;;;;;18.15;4.70;;;;;;;;;;5037073;28;20041;-78
2023/04/27 03:51:41;;;;;;;11.10;3.97;;;;;;;;;;5037487;28;20109;-78
2023/04/27 03:54:13;;;;;;;11.23;4.03;;;;;;;;;;5049358;28;20032;-78
2023/04/27 03:56:46;;;;;;;15.38;4.60;;;;;;;;;;5045766;28;20071;-77
2023/04/27 03:59:12;;;;;;;24.15;4.63;;;;;;;;;;5044384;28;20447;-78
2023/04/27 04:01:44;;;;;;;17.30;3.85;;;;;;;;;;5041176;28;20029;-78
2023/04/27 04:04:16;;;;;;;12.38;4.07;;;;;;;;;;5036501;28;20128;-77
2023/04/27 04:06:41;;;;;;;10.93;3.72;;;;;;;;;;5052089;28;20055;-77
2023/04/27 04:09:13;;;;;;;10.68;3.92;;;;;;;;;;5042460;28;20037;-77
2023/04/27 04:11:45;;;;;;;10.65;4.10;;;;;;;;;;5043281;28;20437;-77
2023/04/27 04:14:10;;;;;;;11.30;4.97;;;;;;;;;;5041559;28;20051;-77
2023/04/27 04:16:42;;;;;;;12.32;4.13;;;;;;;;;;5041393;28;20457;-78
2023/04/27 04:19:14;;;;;;;10.02;3.38;;;;;;;;;;5038685;28;20083;-77
2023/04/27 04:21:39;;;;;;;24.45;4.45;;;;;;;;;;5040417;28;20080;-78
2023/04/27 04:24:11;;;;;;;13.35;4.32;;;;;;;;;;5042597;28;20037;-78
2023/04/27 04:26:43;;;;;;;14.93;4.38;;;;;;;;;;5044433;28;20075;-77
2023/04/27 04:29:08;;;;;;;10.70;3.65;;;;;;;;;;5044623;28;20065;-77
2023/04/27 04:31:40;;;;;;;10.93;4.88;;;;;;;;;;5046518;28;20064;-77
2023/04/27 04:34:13;;;;;;;13.38;4.35;;;;;;;;;;5044164;28;20045;-78
2023/04/27 04:36:39;;;;;;;21.48;4.60;;;;;;;;;;5047939;28;20036;-77
2023/04/27 04:39:11;;;;;;;8.98;4.15;;;;;;;;;;5051358;28;20025;-78
2023/04/27 04:41:43;;;;;;;14.35;3.92;;;;;;;;;;5051085;28;20034;-78
2023/04/27 04:44:08;;;;;;;17.42;4.15;;;;;;;;;;5052948;28;20048;-78
2023/04/27 04:46:40;;;;;;;13.95;4.57;;;;;;;;;;5052301;28;20053;-78
2023/04/27 04:49:13;;;;;;;18.95;4.90;;;;;;;;;;5044839;28;20061;-79
2023/04/27 04:51:48;;;;;;;14.57;4.50;;;;;;;;;;5040913;28;20045;-78
2023/04/27 04:54:20;;;;;;;13.00;4.30;;;;;;;;;;5057374;28;20422;-78
2023/04/27 04:56:45;;;;;;;11.32;4.22;;;;;;;;;;5037015;28;20120;-78
2023/04/27 04:59:17;;;;;;;11.07;4.22;;;;;;;;;;5036803;28;20116;-79
2023/04/27 05:01:49;;;;;;;13.35;4.90;;;;;;;;;;5044923;28;20032;-79
2023/04/27 05:04:14;;;;;;;7.47;3.95;;;;;;;;;;5047341;28;20052;-78
2023/04/27 05:06:46;;;;;;;14.90;4.88;;;;;;;;;;5042683;28;20380;-78
2023/04/27 05:09:18;;;;;;;10.25;4.60;;;;;;;;;;5049353;28;20542;-78
2023/04/27 05:11:43;;;;;;;8.05;4.03;;;;;;;;;;5038526;28;20408;-77
2023/04/27 05:14:15;;;;;;;11.85;4.20;;;;;;;;;;5037565;28;20104;-79
2023/04/27 05:16:48;;;;;;;9.30;4.00;;;;;;;;;;5045835;28;20041;-77
2023/04/27 05:19:17;;;;;;;19.90;4.53;;;;;;;;;;5043956;28;20041;-79
2023/04/27 05:21:56;;;;;;;13.88;4.38;;;;;;;;;;5032084;28;20097;-79
2023/04/27 05:24:21;;;;;;;9.48;4.47;;;;;;;;;;5030277;28;20040;-78
2023/04/27 05:26:46;;;;;;;10.70;4.13;;;;;;;;;;5039332;28;20037;-78
2023/04/27 05:29:26;;;;;;;12.00;4.53;;;;;;;;;;5036553;28;20036;-79
2023/04/27 05:31:51;;;;;;;15.50;4.53;;;;;;;;;;5044296;28;20049;-78
2023/04/27 05:34:16;;;;;;;10.07;4.07;;;;;;;;;;5050948;28;20040;-78
2023/04/27 05:36:55;;;;;;;10.02;3.67;;;;;;;;;;5050340;28;20028;-79
2023/04/27 05:39:20;;;;;;;12.93;4.57;;;;;;;;;;5042874;28;20029;-77
2023/04/27 05:41:45;;;;;;;13.48;4.22;;;;;;;;;;5041773;28;20037;-79
2023/04/27 05:44:27;;;;;;;14.43;4.32;;;;;;;;;;5037334;28;20047;-79
2023/04/27 05:46:52;;;;;;;10.85;4.35;;;;;;;;;;5031967;28;20057;-79
2023/04/27 05:49:31;;;;;;;10.02;4.00;;;;;;;;;;5040619;28;20037;-79
2023/04/27 05:51:57;;;;;;;12.02;4.38;;;;;;;;;;5048315;28;20037;-79
2023/04/27 05:54:23;;;;;;;9.60;3.60;;;;;;;;;;5040361;28;20060;-77
2023/04/27 05:57:02;;;;;;;8.73;3.65;;;;;;;;;;5037863;28;20077;-79
2023/04/27 05:59:28;;;;;;;8.07;3.60;;;;;;;;;;5035788;28;20030;-78
2023/04/27 06:01:53;;;;;;;9.73;4.00;;;;;;;;;;5037029;28;20029;-78
2023/04/27 06:04:32;;;;;;;9.95;4.30;;;;;;;;;;5033884;28;20385;-78
2023/04/27 06:06:58;;;;;;;7.47;3.97;;;;;;;;;;5037397;28;20139;-79
2023/04/27 06:09:24;;;;;;;13.10;3.85;;;;;;;;;;5042237;28;20032;-78
2023/04/27 06:12:03;;;;;;;7.95;3.55;;;;;;;;;;5041579;28;20036;-79
2023/04/27 06:14:32;;;;;;;10.93;4.00;;;;;;;;;;5034424;28;20060;-77
2023/04/27 06:17:11;;;;;;;11.20;3.80;;;;;;;;;;5030544;28;20049;-79
2023/04/27 06:19:36;;;;;;;12.90;3.92;;;;;;;;;;5041143;28;20047;-79
2023/04/27 06:22:02;;;;;;;7.50;3.75;;;;;;;;;;5042933;28;20040;-79
2023/04/27 06:24:41;;;;;;;8.57;3.92;;;;;;;;;;5039198;28;20044;-79
2023/04/27 06:27:06;;;;;;;6.45;3.53;;;;;;;;;;5038772;28;20041;-78
2023/04/27 06:29:32;;;;;;;10.15;3.78;;;;;;;;;;5048853;28;20104;-78
2023/04/27 06:32:11;;;;;;;15.40;4.10;;;;;;;;;;5034707;28;20128;-78
2023/04/27 06:34:36;;;;;;;12.32;3.90;;;;;;;;;;5037725;28;20041;-78
2023/04/27 06:37:01;;;;;;;12.95;3.97;;;;;;;;;;5037877;28;20038;-78
2023/04/27 06:39:40;;;;;;;8.30;4.00;;;;;;;;;;5037635;28;20091;-77
2023/04/27 06:42:05;;;;;;;10.30;3.50;;;;;;;;;;5045394;28;20497;-77
2023/04/27 06:44:31;;;;;;;8.48;4.25;;;;;;;;;;5041669;28;20068;-77
2023/04/27 06:47:10;;;;;;;9.23;3.97;;;;;;;;;;5043544;28;20041;-78
2023/04/27 06:49:35;;;;;;;8.63;3.47;;;;;;;;;;5039752;28;20029;-78
2023/04/27 06:52:01;;;;;;;9.02;3.78;;;;;;;;;;5037789;28;20458;-78
2023/04/27 06:54:40;;;;;;;11.48;3.45;;;;;;;;;;5040803;28;20539;-77
2023/04/27 06:57:06;;;;;;;6.10;3.50;;;;;;;;;;5033301;28;20036;-77
2023/04/27 06:59:31;;;;;;;8.27;4.05;;;;;;;;;;5044955;28;20036;-77
2023/04/27 07:02:10;;;;;;;10.15;4.40;;;;;;;;;;5039886;28;20025;-78
2023/04/27 07:04:36;;;;;;;9.93;3.83;;;;;;;;;;5044220;28;20076;-77
2023/04/27 07:07:02;;;;;;;8.48;4.07;;;;;;;;;;5041370;28;20040;-77
2023/04/27 07:09:41;;;;;;;6.25;3.28;;;;;;;;;;5044629;28;20397;-77
2023/04/27 07:12:07;;;;;;;6.00;2.88;;;;;;;;;;5047647;28;20036;-77
2023/04/27 07:14:32;;;;;;;8.55;3.10;;;;;;;;;;5031807;28;20076;-77
2023/04/27 07:17:11;;;;;;;4.63;2.50;;;;;;;;;;5045289;28;20424;-76
2023/04/27 07:19:36;;;;;;;5.63;3.20;;;;;;;;;;5038591;28;20048;-77
2023/04/27 07:22:02;;;;;;;7.07;2.97;;;;;;;;;;5036814;28;20025;-78
2023/04/27 07:24:41;;;;;;;12.55;2.85;;;;;;;;;;5032882;28;20041;-78
2023/04/27 07:27:07;;;;;;;8.88;3.42;;;;;;;;;;5033668;28;20041;-77
2023/04/27 07:29:32;;;;;;;6.97;2.63;;;;;;;;;;5028693;28;20033;-78
2023/04/27 07:32:15;;;;;;;11.07;2.78;;;;;;;;;;5034804;28;20039;-76
2023/04/27 07:34:40;;;;;;;4.57;2.40;;;;;;;;;;5029038;28;20041;-78
2023/04/27 07:37:12;;;;;;;5.75;2.60;;;;;;;;;;5036215;28;20041;-78
2023/04/27 07:39:45;;;;;;;6.18;2.78;;;;;;;;;;5037325;28;20411;-78
2023/04/27 07:42:11;;;;;;;6.07;2.30;;;;;;;;;;5035167;28;20041;-78
2023/04/27 07:44:43;;;;;;;6.57;2.47;;;;;;;;;;5035624;28;20079;-78
2023/04/27 07:47:15;;;;;;;4.45;2.22;;;;;;;;;;5037982;28;20061;-77
2023/04/27 07:49:40;;;;;;;5.55;2.45;;;;;;;;;;5040998;28;20048;-76
2023/04/27 07:52:12;;;;;;;7.95;3.05;;;;;;;;;;5035867;28;20033;-77
2023/04/27 07:54:45;;;;;;;7.93;2.90;;;;;;;;;;5035680;28;20074;-77
2023/04/27 07:57:10;;;;;;;6.90;3.15;;;;;;;;;;5041669;28;20048;-77
2023/04/27 07:59:42;;;;;;;5.78;2.90;;;;;;;;;;5056011;28;20033;-78
2023/04/27 08:02:14;;;;;;;6.15;2.67;;;;;;;;;;5036324;28;20498;-76
2023/04/27 08:04:39;;;;;;;8.55;3.03;;;;;;;;;;5025282;28;20041;-78
2023/04/27 08:07:11;;;;;;;8.68;3.75;;;;;;;;;;5036359;28;20104;-77
2023/04/27 08:09:43;;;;;;;13.35;3.78;;;;;;;;;;5035388;28;20046;-78
2023/04/27 08:12:08;;;;;;;8.88;3.92;;;;;;;;;;5037162;28;20112;-78
2023/04/27 08:14:40;;;;;;;10.68;5.85;;;;;;;;;;5046455;28;20441;-78
2023/04/27 08:17:12;;;;;;;9.27;4.93;;;;;;;;;;5044449;28;20045;-75
2023/04/27 08:19:37;;;;;;;13.63;6.05;;;;;;;;;;5045055;28;20474;-77
2023/04/27 08:22:09;;;;;;;17.20;8.43;;;;;;;;;;5049883;28;20302;-78
2023/04/27 08:24:41;;;;;;;21.27;8.32;;;;;;;;;;5037065;28;20041;-78
2023/04/27 08:27:06;;;;;;;16.20;7.43;;;;;;;;;;5034060;28;20417;-78
2023/04/27 08:29:51;;;;;;;13.65;7.72;;;;;;;;;;5032677;28;20037;-77
2023/04/27 08:32:16;;;;;;;19.23;7.80;;;;;;;;;;5032678;28;20099;-77
2023/04/27 08:34:48;;;;;;;18.25;7.57;;;;;;;;;;5034166;28;20416;-78
2023/04/27 08:37:20;;;;;;;19.20;7.88;;;;;;;;;;5043292;28;20102;-78
2023/04/27 08:40:02;;;;;;;19.33;8.00;;;;;;;;;;5038650;28;20056;-77
2023/04/27 08:42:34;;;;;;;;;;;;;;;;;;5044321;28;20439;-78
2023/04/27 08:44:59;;;;;;;15.60;7.57;;;;;;;;;;5051107;28;19920;-77
2023/04/27 08:47:31;;;;;;;18.60;8.20;;;;;;;;;;5044132;28;20170;-77
2023/04/27 08:50:03;;;;;;;20.92;8.10;;;;;;;;;;5036287;28;20053;-77
2023/04/27 08:52:28;;;;;;;19.98;8.65;;;;;;;;;;5027996;28;20033;-78
2023/04/27 08:55:00;;;;;;;20.23;8.93;;;;;;;;;;5032527;28;20519;-77
2023/04/27 08:57:32;;;;;;;19.73;8.95;;;;;;;;;;5042243;28;20049;-78
2023/04/27 08:59:59;;;;;;;16.25;7.88;;;;;;;;;;5033130;28;20044;-78
2023/04/27 09:02:31;;;;;;;14.82;7.63;;;;;;;;;;5054662;28;20021;-78
2023/04/27 09:05:03;;;;;;;20.70;8.90;;;;;;;;;;5034699;28;20383;-77
2023/04/27 09:07:28;;;;;;;15.88;8.43;;;;;;;;;;5033833;28;20036;-78
2023/04/27 09:10:11;;;;;;;18.60;8.77;;;;;;;;;;5021426;28;20025;-77
2023/04/27 09:12:37;;;;;;;19.33;8.60;;;;;;;;;;5043657;28;20044;-77
2023/04/27 09:15:09;;;;;;;21.05;8.85;;;;;;;;;;5049718;28;20336;-77
2023/04/27 09:17:41;;;;;;;19.80;8.93;;;;;;;;;;5045587;28;20108;-77
2023/04/27 09:20:07;;;;;;;20.02;8.45;;;;;;;;;;5038182;28;20045;-76
2023/04/27 09:23:00;;;;;;;19.75;8.98;;;;;;;;;;5038663;28;20033;-76
2023/04/27 09:25:32;;;;;;;18.23;9.07;;;;;;;;;;5036934;28;20040;-77
2023/04/27 09:28:11;;;;;;;19.48;9.82;;;;;;;;;;5035644;28;20029;-75
2023/04/27 09:30:36;;;;;;;15.52;8.32;;;;;;;;;;5013229;28;20067;-77
2023/04/27 09:33:02;;;;;;;18.65;8.25;;;;;;;;;;5028916;28;20029;-75
2023/04/27 09:35:41;;;;;;;20.63;9.38;;;;;;;;;;5033835;28;20087;-77
2023/04/27 09:38:06;;;;;;;22.25;8.20;;;;;;;;;;5051583;28;20102;-75
2023/04/27 09:40:32;;;;;;;20.15;9.02;;;;;;;;;;5036909;28;20037;-77
2023/04/27 09:43:12;;;;;;;17.45;9.32;;;;;;;;;;5028103;28;20044;-78
2023/04/27 09:45:37;;;;;;;17.55;8.68;;;;;;;;;;5037334;28;20044;-77
2023/04/27 09:48:19;;;;;;;23.77;10.38;;;;;;;;;;5029544;28;20060;-75
2023/04/27 09:50:45;;;;;;;19.20;9.38;;;;;;;;;;5033990;28;20060;-75
2023/04/27 09:53:28;;;;;;;19.27;8.73;;;;;;;;;;5038878;28;20037;-78
2023/04/27 09:56:30;;;;;;;14.68;8.57;;;;;;;;;;5029071;28;20045;-78
2023/04/27 09:59:09;;;;;;;20.33;9.48;;;;;;;;;;5031951;28;20051;-77
2023/04/27 10:01:50;;;;;;;19.10;9.52;;;;;;;;;;5030026;28;20138;-75
2023/04/27 10:04:38;;;;;;;18.85;9.05;;;;;;;;;;5055484;28;20141;-77
2023/04/27 10:07:13;;;;;;;18.98;8.18;;;;;;;;;;5033502;28;20049;-78
2023/04/27 10:09:54;;;;;;;20.23;8.65;;;;;;;;;;5038811;28;20502;-77
2023/04/27 10:12:19;;;;;;;19.65;9.13;;;;;;;;;;5030806;28;20081;-77
2023/04/27 10:15:03;;;;;;;15.10;8.40;;;;;;;;;;5033546;28;20061;-77
2023/04/27 10:17:33;;;;;;;20.25;8.70;;;;;;;;;;5030879;28;20067;-77
2023/04/27 10:20:13;;;;;;;18.15;9.07;;;;;;;;;;5011577;28;20304;-75
2023/04/27 10:22:46;;;;;;;21.38;8.77;;;;;;;;;;5015476;28;20037;-78
2023/04/27 10:25:26;;;;;;;19.98;9.80;;;;;;;;;;5027030;28;20029;-75
2023/04/27 10:27:57;;;;;;;21.33;9.55;;;;;;;;;;5034636;28;20048;-75
2023/04/27 10:30:41;;;;;;;20.85;10.38;;;;;;;;;;5048744;28;20025;-76
2023/04/27 10:33:08;;;;;;;15.95;8.68;;;;;;;;;;5038650;28;20037;-76
2023/04/27 10:36:00;;;;;;;18.60;8.57;;;;;;;;;;5041816;28;20123;-76
2023/04/27 10:38:29;;;;;;;17.45;8.30;;;;;;;;;;5011784;28;20501;-77
2023/04/27 10:41:09;;;;;;;13.20;7.28;;;;;;;;;;5025161;28;20219;-77
2023/04/27 10:43:34;;;;;;;15.45;8.63;;;;;;;;;;5026473;28;20862;-77
2023/04/27 10:46:24;;;;;;;19.15;9.85;;;;;;;;;;5022813;28;20044;-76
2023/04/27 10:48:49;;;;;;;22.27;8.82;;;;;;;;;;5037734;28;20478;-76
2023/04/27 10:51:16;;;;;;;26.10;9.55;;;;;;;;;;5022093;28;20033;-75
2023/04/27 10:53:58;;;;;;;21.60;9.77;;;;;;;;;;5029315;28;20037;-77
2023/04/27 10:56:25;;;;;;;17.55;9.63;;;;;;;;;;5045897;28;20048;-76
2023/04/27 10:59:08;;;;;;;23.70;10.27;;;;;;;;;;5042579;28;20029;-77
2023/04/27 11:01:34;;;;;;;27.08;10.82;;;;;;;;;;5032849;28;20044;-77
2023/04/27 11:04:06;;;;;;;27.80;9.25;;;;;;;;;;5027905;28;20040;-78
2023/04/27 11:06:47;;;;;;;19.77;10.38;;;;;;;;;;5036716;28;20095;-76
2023/04/27 11:09:26;;;;;;;15.98;8.07;;;;;;;;;;5034036;28;20052;-77
2023/04/27 11:11:58;;;;;;;21.45;9.07;;;;;;;;;;5024145;28;20512;-76
2023/04/27 11:14:30;;;;;;;17.95;9.18;;;;;;;;;;5041371;28;20029;-77
2023/04/27 11:16:56;;;;;;;21.92;9.32;;;;;;;;;;5033905;28;20033;-78
2023/04/27 11:19:29;;;;;;;19.85;9.13;;;;;;;;;;5033688;28;20070;-77
2023/04/27 11:22:05;;;;;;;20.48;9.80;;;;;;;;;;5043824;28;20113;-77
2023/04/27 11:24:38;;;;;;;18.48;8.82;;;;;;;;;;5020436;28;20393;-77
2023/04/27 11:27:10;;;;;;;23.88;10.40;;;;;;;;;;5034073;28;20092;-77
2023/04/27 11:29:45;;;;;;;16.55;10.43;;;;;;;;;;5038648;28;20033;-77
2023/04/27 11:32:19;;;;;;;19.88;9.48;;;;;;;;;;5041217;28;20531;-76
2023/04/27 11:34:59;;;;;;;19.63;10.02;;;;;;;;;;5044568;28;20532;-78
2023/04/27 11:37:31;;;;;;;20.65;10.57;;;;;;;;;;5045166;28;20049;-78
2023/04/27 11:39:59;;;;;;;21.85;10.02;;;;;;;;;;5020154;28;20190;-78
2023/04/27 11:42:33;;;;;;;17.15;10.38;;;;;;;;;;5041794;28;20040;-78
2023/04/27 11:45:06;;;;;;;22.02;10.07;;;;;;;;;;5039566;28;20045;-78
2023/04/27 11:47:41;;;;;;;22.73;11.18;;;;;;;;;;5022634;28;20111;-77
2023/04/27 11:50:13;;;;;;;18.15;10.02;;;;;;;;;;5044531;28;20037;-78
2023/04/27 11:52:39;;;;;;;19.70;10.43;;;;;;;;;;5023034;28;20045;-77
2023/04/27 11:55:14;;;;;;;23.48;10.77;;;;;;;;;;5032611;28;20576;-79
2023/04/27 11:57:46;;;;;;;17.45;9.27;;;;;;;;;;5028321;28;20112;-77
2023/04/27 12:00:19;;;;;;;19.30;9.85;;;;;;;;;;5052281;28;20037;-76
2023/04/27 12:02:44;;;;;;;17.58;8.95;;;;;;;;;;5033802;28;20029;-76
2023/04/27 12:05:18;;;;;;;28.77;11.18;;;;;;;;;;5013254;28;20026;-78
2023/04/27 12:07:50;;;;;;;20.25;10.20;;;;;;;;;;5035586;28;20033;-77
2023/04/27 12:10:15;;;;;;;20.00;10.95;;;;;;;;;;5033765;28;20065;-75
2023/04/27 12:12:47;;;;;;;26.63;11.07;;;;;;;;;;5034947;28;20064;-77
2023/04/27 12:15:19;;;;;;;27.90;11.70;;;;;;;;;;5029729;28;20452;-77
2023/04/27 12:17:44;;;;;;;28.10;11.70;;;;;;;;;;5046707;28;20037;-77
2023/04/27 12:20:16;;;;;;;30.20;12.73;;;;;;;;;;5042892;28;20121;-78
2023/04/27 12:22:48;;;;;;;27.42;12.98;;;;;;;;;;5038082;28;20041;-77
2023/04/27 12:25:14;;;;;;;30.30;12.48;;;;;;;;;;5033511;28;20095;-78
2023/04/27 12:27:47;;;;;;;30.25;13.63;;;;;;;;;;5034833;28;20033;-78
2023/04/27 12:30:20;;;;;;;28.88;14.02;;;;;;;;;;5037441;28;20064;-78
2023/04/27 12:32:45;;;;;;;26.17;14.00;;;;;;;;;;5033891;28;20044;-77
2023/04/27 12:35:17;;;;;;;27.23;15.27;;;;;;;;;;5035595;28;20041;-78
2023/04/27 12:37:49;;;;;;;37.22;14.35;;;;;;;;;;5039757;28;20041;-77
2023/04/27 12:40:14;;;;;;;26.42;13.25;;;;;;;;;;5038038;28;20159;-78
2023/04/27 12:42:46;;;;;;;25.48;11.75;;;;;;;;;;5035713;28;20033;-78
2023/04/27 12:45:18;;;;;;;28.08;13.05;;;;;;;;;;5035245;28;20124;-78
2023/04/27 12:47:43;;;;;;;27.33;14.10;;;;;;;;;;5037300;28;20409;-79
2023/04/27 12:50:15;;;;;;;31.05;14.18;;;;;;;;;;5038297;28;20033;-76
2023/04/27 12:52:47;;;;;;;28.17;14.75;;;;;;;;;;5037391;28;20524;-77
2023/04/27 12:55:12;;;;;;;35.90;15.38;;;;;;;;;;5037629;28;20470;-79
2023/04/27 12:57:44;;;;;;;30.35;15.68;;;;;;;;;;5039373;28;20091;-77
2023/04/27 13:00:16;;;;;;;27.02;14.35;;;;;;;;;;5034476;28;20065;-77
2023/04/27 13:02:42;;;;;;;26.23;14.32;;;;;;;;;;5031849;28;20087;-78
2023/04/27 13:05:14;;;;;;;34.08;16.13;;;;;;;;;;5047284;28;20040;-78
2023/04/27 13:07:46;;;;;;;33.83;15.07;;;;;;;;;;5022313;28;20063;-79
2023/04/27 13:10:11;;;;;;;28.25;14.68;;;;;;;;;;5039178;28;20482;-78
2023/04/27 13:12:43;;;;;;;29.25;15.60;;;;;;;;;;5045458;28;20044;-75
2023/04/27 13:15:15;;;;;;;25.25;13.55;;;;;;;;;;5038416;28;20045;-77
2023/04/27 13:17:40;;;;;;;25.38;14.00;;;;;;;;;;5032550;28;20037;-79
2023/04/27 13:20:12;;;;;;;25.98;13.98;;;;;;;;;;5043038;28;20040;-79
2023/04/27 13:22:44;;;;;;;29.15;15.07;;;;;;;;;;5032969;28;20049;-77
2023/04/27 13:25:10;;;;;;;26.42;13.10;;;;;;;;;;5046590;28;20138;-78
2023/04/27 13:27:42;;;;;;;28.65;14.63;;;;;;;;;;5034410;28;20061;-77
2023/04/27 13:30:15;;;;;;;21.08;13.32;;;;;;;;;;5031738;28;20043;-79
2023/04/27 13:32:40;;;;;;;24.30;12.25;;;;;;;;;;5042316;28;20492;-78
2023/04/27 13:35:12;;;;;;;26.65;13.73;;;;;;;;;;5047306;28;20112;-79
2023/04/27 13:37:44;;;;;;;24.13;13.55;;;;;;;;;;5038917;28;20068;-79
2023/04/27 13:40:09;;;;;;;22.63;13.77;;;;;;;;;;5035113;28;20517;-79
2023/04/27 13:42:41;;;;;;;28.00;14.25;;;;;;;;;;5034470;28;20108;-78
2023/04/27 13:45:14;;;;;;;25.23;14.48;;;;;;;;;;5046204;28;20408;-79
2023/04/27 13:47:40;;;;;;;28.80;14.07;;;;;;;;;;5031680;28;20136;-76
2023/04/27 13:50:12;;;;;;;25.08;13.65;;;;;;;;;;5034507;28;20036;-79
2023/04/27 13:52:45;;;;;;;24.05;13.73;;;;;;;;;;5045859;28;20508;-78
2023/04/27 13:55:10;;;;;;;24.10;13.15;;;;;;;;;;5035258;28;20030;-79
2023/04/27 13:57:42;;;;;;;24.38;10.63;;;;;;;;;;5041523;28;20116;-78
2023/04/27 14:00:15;;;;;;;21.00;13.52;;;;;;;;;;5041977;28;20040;-78
2023/04/27 14:02:40;;;;;;;24.85;14.35;;;;;;;;;;5034474;28;20132;-78
2023/04/27 14:05:12;;;;;;;24.77;13.48;;;;;;;;;;5030786;28;21049;-78
2023/04/27 14:07:44;;;;;;;24.95;13.68;;;;;;;;;;5036917;28;20390;-79
2023/04/27 14:10:09;;;;;;;26.02;13.27;;;;;;;;;;5034322;28;20064;-79
2023/04/27 14:12:41;;;;;;;24.73;12.23;;;;;;;;;;5044377;28;20510;-77
2023/04/27 14:15:14;;;;;;;21.10;11.55;;;;;;;;;;5033835;28;20037;-79
2023/04/27 14:17:39;;;;;;;24.37;13.03;;;;;;;;;;5044566;28;20103;-78
2023/04/27 14:20:11;;;;;;;21.20;12.43;;;;;;;;;;5035725;28;20067;-78
2023/04/27 14:22:43;;;;;;;23.27;12.13;;;;;;;;;;5029248;28;20064;-78
2023/04/27 14:25:08;;;;;;;25.58;12.15;;;;;;;;;;5040758;28;20040;-79
2023/04/27 14:27:40;;;;;;;24.60;12.68;;;;;;;;;;5038813;28;20041;-78
2023/04/27 14:30:13;;;;;;;21.48;12.15;;;;;;;;;;5046211;28;20040;-78
2023/04/27 14:32:38;;;;;;;20.23;10.68;;;;;;;;;;5041755;28;20375;-79
2023/04/27 14:35:10;;;;;;;19.63;11.50;;;;;;;;;;5045298;28;20158;-79
2023/04/27 14:37:42;;;;;;;15.25;9.77;;;;;;;;;;5030542;28;20497;-79
2023/04/27 14:40:08;;;;;;;18.75;11.43;;;;;;;;;;5032591;28;20108;-75
2023/04/27 14:42:40;;;;;;;18.70;11.60;;;;;;;;;;5042622;28;20033;-79
2023/04/27 14:45:14;;;;;;;15.95;10.13;;;;;;;;;;5028755;28;20527;-79
2023/04/27 14:47:40;;;;;;;20.02;10.55;;;;;;;;;;5019307;28;20184;-75
2023/04/27 14:50:12;;;;;;;25.92;13.52;;;;;;;;;;5036252;28;20108;-79
2023/04/27 14:52:45;;;;;;;23.40;13.52;;;;;;;;;;5037037;28;20037;-79